sensor_id;sensor_type;location;lat;lon;timestamp;P1;durP1;ratioP1;P2;durP2;ratioP2
17363;SDS011;8799;43.594;13.526;2023-05-10T00:01:36;1.60;;;1.50;;
17363;SDS011;8799;43.594;13.526;2023-05-10T00:04:13;3.17;;;1.77;;
17363;SDS011;8799;43.594;13.526;2023-05-10T00:06:44;1.77;;;1.40;;
17363;SDS011;8799;43.594;13.526;2023-05-10T00:09:12;2.87;;;1.90;;
17363;SDS011;8799;43.594;13.526;2023-05-10T00:11:40;1.70;;;1.60;;
17363;SDS011;8799;43.594;13.526;2023-05-10T00:14:09;2.50;;;1.80;;
17363;SDS011;8799;43.594;13.526;2023-05-10T00:16:38;2.90;;;1.93;;
17363;SDS011;8799;43.594;13.526;2023-05-10T00:19:06;3.40;;;1.60;;
17363;SDS011;8799;43.594;13.526;2023-05-10T00:21:34;3.13;;;1.90;;
17363;SDS011;8799;43.594;13.526;2023-05-10T00:24:02;2.07;;;1.70;;
17363;SDS011;8799;43.594;13.526;2023-05-10T00:26:30;2.00;;;1.77;;
17363;SDS011;8799;43.594;13.526;2023-05-10T00:28:58;2.43;;;1.87;;
17363;SDS011;8799;43.594;13.526;2023-05-10T00:31:28;2.50;;;1.80;;
17363;SDS011;8799;43.594;13.526;2023-05-10T00:33:55;2.97;;;1.80;;
17363;SDS011;8799;43.594;13.526;2023-05-10T00:36:23;1.63;;;1.40;;
17363;SDS011;8799;43.594;13.526;2023-05-10T00:38:51;2.63;;;1.80;;
17363;SDS011;8799;43.594;13.526;2023-05-10T00:41:19;2.20;;;1.70;;
17363;SDS011;8799;43.594;13.526;2023-05-10T00:43:48;2.23;;;1.73;;
17363;SDS011;8799;43.594;13.526;2023-05-10T00:46:16;2.10;;;1.60;;
17363;SDS011;8799;43.594;13.526;2023-05-10T00:48:45;2.10;;;1.57;;
17363;SDS011;8799;43.594;13.526;2023-05-10T00:51:13;2.37;;;1.80;;
17363;SDS011;8799;43.594;13.526;2023-05-10T00:53:41;1.83;;;1.50;;
17363;SDS011;8799;43.594;13.526;2023-05-10T00:56:10;4.03;;;2.33;;
17363;SDS011;8799;43.594;13.526;2023-05-10T00:58:38;4.60;;;1.53;;
17363;SDS011;8799;43.594;13.526;2023-05-10T01:01:06;3.00;;;1.90;;
17363;SDS011;8799;43.594;13.526;2023-05-10T01:03:34;1.37;;;1.20;;
17363;SDS011;8799;43.594;13.526;2023-05-10T01:06:05;2.33;;;1.57;;
17363;SDS011;8799;43.594;13.526;2023-05-10T01:08:33;1.93;;;1.60;;
17363;SDS011;8799;43.594;13.526;2023-05-10T01:11:02;2.80;;;1.87;;
17363;SDS011;8799;43.594;13.526;2023-05-10T01:13:31;1.97;;;1.50;;
17363;SDS011;8799;43.594;13.526;2023-05-10T01:16:02;2.50;;;1.80;;
17363;SDS011;8799;43.594;13.526;2023-05-10T01:18:31;2.10;;;1.33;;
17363;SDS011;8799;43.594;13.526;2023-05-10T01:21:07;3.17;;;1.63;;
17363;SDS011;8799;43.594;13.526;2023-05-10T01:23:45;3.27;;;1.70;;
17363;SDS011;8799;43.594;13.526;2023-05-10T01:26:46;1.97;;;1.60;;
17363;SDS011;8799;43.594;13.526;2023-05-10T01:29:34;2.57;;;1.67;;
17363;SDS011;8799;43.594;13.526;2023-05-10T01:32:22;2.00;;;1.60;;
17363;SDS011;8799;43.594;13.526;2023-05-10T01:34:59;3.50;;;1.77;;
17363;SDS011;8799;43.594;13.526;2023-05-10T01:37:32;1.93;;;1.60;;
17363;SDS011;8799;43.594;13.526;2023-05-10T01:40:08;3.00;;;1.90;;
17363;SDS011;8799;43.594;13.526;2023-05-10T01:42:47;2.43;;;1.87;;
17363;SDS011;8799;43.594;13.526;2023-05-10T01:45:20;2.60;;;1.80;;
17363;SDS011;8799;43.594;13.526;2023-05-10T01:47:58;3.03;;;1.73;;
17363;SDS011;8799;43.594;13.526;2023-05-10T01:50:32;2.80;;;1.90;;
17363;SDS011;8799;43.594;13.526;2023-05-10T01:53:01;2.30;;;1.53;;
17363;SDS011;8799;43.594;13.526;2023-05-10T01:55:32;4.30;;;2.07;;
17363;SDS011;8799;43.594;13.526;2023-05-10T01:58:04;3.30;;;1.70;;
17363;SDS011;8799;43.594;13.526;2023-05-10T02:00:34;2.27;;;1.70;;
17363;SDS011;8799;43.594;13.526;2023-05-10T02:03:06;2.53;;;1.87;;
17363;SDS011;8799;43.594;13.526;2023-05-10T02:05:35;2.53;;;1.70;;
17363;SDS011;8799;43.594;13.526;2023-05-10T02:08:05;3.43;;;2.00;;
17363;SDS011;8799;43.594;13.526;2023-05-10T02:10:34;2.93;;;1.80;;
17363;SDS011;8799;43.594;13.526;2023-05-10T02:13:03;3.77;;;1.90;;
17363;SDS011;8799;43.594;13.526;2023-05-10T02:15:33;1.80;;;1.53;;
17363;SDS011;8799;43.594;13.526;2023-05-10T02:18:05;2.50;;;1.80;;
17363;SDS011;8799;43.594;13.526;2023-05-10T02:20:35;2.27;;;1.80;;
17363;SDS011;8799;43.594;13.526;2023-05-10T02:23:04;2.63;;;1.90;;
17363;SDS011;8799;43.594;13.526;2023-05-10T02:25:33;3.00;;;1.90;;
17363;SDS011;8799;43.594;13.526;2023-05-10T02:28:02;4.57;;;1.70;;
17363;SDS011;8799;43.594;13.526;2023-05-10T02:30:32;1.60;;;1.50;;
17363;SDS011;8799;43.594;13.526;2023-05-10T02:33:01;2.30;;;1.73;;
17363;SDS011;8799;43.594;13.526;2023-05-10T02:35:33;3.27;;;1.90;;
17363;SDS011;8799;43.594;13.526;2023-05-10T02:38:02;2.27;;;1.70;;
17363;SDS011;8799;43.594;13.526;2023-05-10T02:40:30;2.47;;;1.80;;
17363;SDS011;8799;43.594;13.526;2023-05-10T02:42:59;2.57;;;1.63;;
17363;SDS011;8799;43.594;13.526;2023-05-10T02:45:30;3.20;;;1.90;;
17363;SDS011;8799;43.594;13.526;2023-05-10T02:47:59;2.37;;;1.77;;
17363;SDS011;8799;43.594;13.526;2023-05-10T02:50:27;2.37;;;1.63;;
17363;SDS011;8799;43.594;13.526;2023-05-10T02:53:01;4.00;;;1.90;;
17363;SDS011;8799;43.594;13.526;2023-05-10T02:55:35;3.23;;;1.70;;
17363;SDS011;8799;43.594;13.526;2023-05-10T02:58:05;2.53;;;1.67;;
17363;SDS011;8799;43.594;13.526;2023-05-10T03:00:33;2.57;;;1.60;;
17363;SDS011;8799;43.594;13.526;2023-05-10T03:03:01;2.63;;;1.87;;
17363;SDS011;8799;43.594;13.526;2023-05-10T03:05:29;1.33;;;1.23;;
17363;SDS011;8799;43.594;13.526;2023-05-10T03:07:57;3.13;;;1.70;;
17363;SDS011;8799;43.594;13.526;2023-05-10T03:10:29;2.63;;;1.80;;
17363;SDS011;8799;43.594;13.526;2023-05-10T03:13:05;2.93;;;2.00;;
17363;SDS011;8799;43.594;13.526;2023-05-10T03:15:40;3.47;;;1.80;;
17363;SDS011;8799;43.594;13.526;2023-05-10T03:18:15;2.60;;;1.80;;
17363;SDS011;8799;43.594;13.526;2023-05-10T03:20:49;2.27;;;1.70;;
17363;SDS011;8799;43.594;13.526;2023-05-10T03:23:22;2.70;;;2.00;;
17363;SDS011;8799;43.594;13.526;2023-05-10T03:25:54;2.27;;;1.60;;
17363;SDS011;8799;43.594;13.526;2023-05-10T03:28:23;4.23;;;2.10;;
17363;SDS011;8799;43.594;13.526;2023-05-10T03:30:53;5.00;;;2.43;;
17363;SDS011;8799;43.594;13.526;2023-05-10T03:33:22;3.70;;;1.93;;
17363;SDS011;8799;43.594;13.526;2023-05-10T03:35:50;2.63;;;1.73;;
17363;SDS011;8799;43.594;13.526;2023-05-10T03:38:18;4.50;;;1.60;;
17363;SDS011;8799;43.594;13.526;2023-05-10T03:40:47;4.97;;;2.10;;
17363;SDS011;8799;43.594;13.526;2023-05-10T03:43:16;3.03;;;1.80;;
17363;SDS011;8799;43.594;13.526;2023-05-10T03:45:44;3.10;;;1.93;;
17363;SDS011;8799;43.594;13.526;2023-05-10T03:48:12;2.17;;;1.93;;
17363;SDS011;8799;43.594;13.526;2023-05-10T03:50:40;2.07;;;1.77;;
17363;SDS011;8799;43.594;13.526;2023-05-10T03:53:07;2.13;;;1.60;;
17363;SDS011;8799;43.594;13.526;2023-05-10T03:55:35;3.00;;;1.90;;
17363;SDS011;8799;43.594;13.526;2023-05-10T03:58:05;4.13;;;1.80;;
17363;SDS011;8799;43.594;13.526;2023-05-10T04:00:33;2.90;;;1.60;;
17363;SDS011;8799;43.594;13.526;2023-05-10T04:03:00;3.90;;;1.90;;
17363;SDS011;8799;43.594;13.526;2023-05-10T04:05:29;1.90;;;1.70;;
17363;SDS011;8799;43.594;13.526;2023-05-10T04:07:57;2.20;;;1.67;;
17363;SDS011;8799;43.594;13.526;2023-05-10T04:10:25;2.10;;;1.90;;
17363;SDS011;8799;43.594;13.526;2023-05-10T04:12:54;10.13;;;2.00;;
17363;SDS011;8799;43.594;13.526;2023-05-10T04:15:23;4.07;;;1.70;;
17363;SDS011;8799;43.594;13.526;2023-05-10T04:17:51;3.00;;;2.07;;
17363;SDS011;8799;43.594;13.526;2023-05-10T04:20:19;3.50;;;1.87;;
17363;SDS011;8799;43.594;13.526;2023-05-10T04:22:47;4.27;;;1.90;;
17363;SDS011;8799;43.594;13.526;2023-05-10T04:25:15;3.03;;;2.00;;
17363;SDS011;8799;43.594;13.526;2023-05-10T04:27:43;2.10;;;1.77;;
17363;SDS011;8799;43.594;13.526;2023-05-10T04:30:12;3.50;;;1.93;;
17363;SDS011;8799;43.594;13.526;2023-05-10T04:32:41;3.27;;;1.93;;
17363;SDS011;8799;43.594;13.526;2023-05-10T04:35:09;3.07;;;1.97;;
17363;SDS011;8799;43.594;13.526;2023-05-10T04:37:37;3.23;;;2.10;;
17363;SDS011;8799;43.594;13.526;2023-05-10T04:40:07;2.97;;;1.93;;
17363;SDS011;8799;43.594;13.526;2023-05-10T04:42:35;5.70;;;2.50;;
17363;SDS011;8799;43.594;13.526;2023-05-10T04:45:03;9.70;;;2.90;;
17363;SDS011;8799;43.594;13.526;2023-05-10T04:47:32;4.67;;;2.67;;
17363;SDS011;8799;43.594;13.526;2023-05-10T04:50:02;6.00;;;3.00;;
17363;SDS011;8799;43.594;13.526;2023-05-10T04:52:31;4.53;;;2.80;;
17363;SDS011;8799;43.594;13.526;2023-05-10T04:54:59;5.67;;;3.10;;
17363;SDS011;8799;43.594;13.526;2023-05-10T04:57:26;5.50;;;2.87;;
17363;SDS011;8799;43.594;13.526;2023-05-10T04:59:54;6.30;;;3.07;;
17363;SDS011;8799;43.594;13.526;2023-05-10T05:02:22;7.10;;;2.83;;
17363;SDS011;8799;43.594;13.526;2023-05-10T05:04:51;5.30;;;3.20;;
17363;SDS011;8799;43.594;13.526;2023-05-10T05:07:21;5.20;;;3.30;;
17363;SDS011;8799;43.594;13.526;2023-05-10T05:09:49;9.37;;;3.60;;
17363;SDS011;8799;43.594;13.526;2023-05-10T05:12:17;5.63;;;3.10;;
17363;SDS011;8799;43.594;13.526;2023-05-10T05:14:45;9.10;;;3.13;;
17363;SDS011;8799;43.594;13.526;2023-05-10T05:17:12;6.53;;;3.07;;
17363;SDS011;8799;43.594;13.526;2023-05-10T05:19:40;6.27;;;2.90;;
17363;SDS011;8799;43.594;13.526;2023-05-10T05:22:07;7.03;;;2.80;;
17363;SDS011;8799;43.594;13.526;2023-05-10T05:24:37;9.23;;;3.60;;
17363;SDS011;8799;43.594;13.526;2023-05-10T05:27:05;7.53;;;3.13;;
17363;SDS011;8799;43.594;13.526;2023-05-10T05:29:33;4.40;;;3.00;;
17363;SDS011;8799;43.594;13.526;2023-05-10T05:32:01;17.77;;;3.57;;
17363;SDS011;8799;43.594;13.526;2023-05-10T05:34:29;6.80;;;3.20;;
17363;SDS011;8799;43.594;13.526;2023-05-10T05:36:57;10.30;;;3.53;;
17363;SDS011;8799;43.594;13.526;2023-05-10T05:39:25;8.67;;;3.27;;
17363;SDS011;8799;43.594;13.526;2023-05-10T05:41:55;6.13;;;3.27;;
17363;SDS011;8799;43.594;13.526;2023-05-10T05:44:23;7.43;;;3.13;;
17363;SDS011;8799;43.594;13.526;2023-05-10T05:46:51;5.73;;;3.07;;
17363;SDS011;8799;43.594;13.526;2023-05-10T05:49:19;4.97;;;2.90;;
17363;SDS011;8799;43.594;13.526;2023-05-10T05:51:47;13.37;;;3.77;;
17363;SDS011;8799;43.594;13.526;2023-05-10T05:54:16;5.67;;;2.83;;
17363;SDS011;8799;43.594;13.526;2023-05-10T05:56:44;6.63;;;2.90;;
17363;SDS011;8799;43.594;13.526;2023-05-10T05:59:13;7.23;;;3.23;;
17363;SDS011;8799;43.594;13.526;2023-05-10T06:01:42;4.23;;;2.83;;
17363;SDS011;8799;43.594;13.526;2023-05-10T06:04:09;5.03;;;3.10;;
17363;SDS011;8799;43.594;13.526;2023-05-10T06:06:37;5.17;;;2.93;;
17363;SDS011;8799;43.594;13.526;2023-05-10T06:09:05;7.13;;;2.97;;
17363;SDS011;8799;43.594;13.526;2023-05-10T06:11:33;4.57;;;3.10;;
17363;SDS011;8799;43.594;13.526;2023-05-10T06:14:02;4.37;;;2.93;;
17363;SDS011;8799;43.594;13.526;2023-05-10T06:16:33;6.53;;;3.50;;
17363;SDS011;8799;43.594;13.526;2023-05-10T06:19:02;8.20;;;2.83;;
17363;SDS011;8799;43.594;13.526;2023-05-10T06:21:30;5.37;;;2.80;;
17363;SDS011;8799;43.594;13.526;2023-05-10T06:23:57;5.10;;;2.93;;
17363;SDS011;8799;43.594;13.526;2023-05-10T06:26:25;5.93;;;3.03;;
17363;SDS011;8799;43.594;13.526;2023-05-10T06:28:53;5.23;;;2.87;;
17363;SDS011;8799;43.594;13.526;2023-05-10T06:31:21;5.40;;;2.97;;
17363;SDS011;8799;43.594;13.526;2023-05-10T06:33:51;5.07;;;2.90;;
17363;SDS011;8799;43.594;13.526;2023-05-10T06:36:19;5.77;;;2.97;;
17363;SDS011;8799;43.594;13.526;2023-05-10T06:38:47;4.73;;;3.30;;
17363;SDS011;8799;43.594;13.526;2023-05-10T06:41:14;6.03;;;3.07;;
17363;SDS011;8799;43.594;13.526;2023-05-10T06:43:42;4.93;;;3.23;;
17363;SDS011;8799;43.594;13.526;2023-05-10T06:46:10;7.07;;;3.20;;
17363;SDS011;8799;43.594;13.526;2023-05-10T06:48:38;4.43;;;3.23;;
17363;SDS011;8799;43.594;13.526;2023-05-10T06:51:08;6.30;;;3.10;;
17363;SDS011;8799;43.594;13.526;2023-05-10T06:53:35;6.17;;;3.60;;
17363;SDS011;8799;43.594;13.526;2023-05-10T06:56:03;4.10;;;3.20;;
17363;SDS011;8799;43.594;13.526;2023-05-10T06:58:31;6.53;;;3.60;;
17363;SDS011;8799;43.594;13.526;2023-05-10T07:01:02;5.53;;;3.50;;
17363;SDS011;8799;43.594;13.526;2023-05-10T07:03:31;5.87;;;3.27;;
17363;SDS011;8799;43.594;13.526;2023-05-10T07:06:01;5.47;;;3.20;;
17363;SDS011;8799;43.594;13.526;2023-05-10T07:08:32;11.63;;;3.57;;
17363;SDS011;8799;43.594;13.526;2023-05-10T07:11:01;6.53;;;3.43;;
17363;SDS011;8799;43.594;13.526;2023-05-10T07:13:30;5.37;;;3.40;;
17363;SDS011;8799;43.594;13.526;2023-05-10T07:15:58;5.93;;;3.03;;
17363;SDS011;8799;43.594;13.526;2023-05-10T07:18:25;4.70;;;3.10;;
17363;SDS011;8799;43.594;13.526;2023-05-10T07:20:53;5.63;;;3.50;;
17363;SDS011;8799;43.594;13.526;2023-05-10T07:23:21;4.97;;;3.20;;
17363;SDS011;8799;43.594;13.526;2023-05-10T07:25:51;5.57;;;3.57;;
17363;SDS011;8799;43.594;13.526;2023-05-10T07:28:19;6.33;;;3.23;;
17363;SDS011;8799;43.594;13.526;2023-05-10T07:30:48;4.60;;;3.00;;
17363;SDS011;8799;43.594;13.526;2023-05-10T07:33:15;5.60;;;3.17;;
17363;SDS011;8799;43.594;13.526;2023-05-10T07:35:43;5.13;;;3.10;;
17363;SDS011;8799;43.594;13.526;2023-05-10T07:38:11;5.63;;;3.17;;
17363;SDS011;8799;43.594;13.526;2023-05-10T07:40:39;5.43;;;3.37;;
17363;SDS011;8799;43.594;13.526;2023-05-10T07:43:08;5.13;;;3.10;;
17363;SDS011;8799;43.594;13.526;2023-05-10T07:45:36;6.73;;;3.07;;
17363;SDS011;8799;43.594;13.526;2023-05-10T07:48:04;5.33;;;3.37;;
17363;SDS011;8799;43.594;13.526;2023-05-10T07:50:32;4.03;;;3.13;;
17363;SDS011;8799;43.594;13.526;2023-05-10T07:53:00;5.17;;;3.17;;
17363;SDS011;8799;43.594;13.526;2023-05-10T07:55:28;6.83;;;3.50;;
17363;SDS011;8799;43.594;13.526;2023-05-10T07:57:57;5.50;;;3.47;;
17363;SDS011;8799;43.594;13.526;2023-05-10T08:00:27;6.63;;;3.50;;
17363;SDS011;8799;43.594;13.526;2023-05-10T08:02:55;5.57;;;3.10;;
17363;SDS011;8799;43.594;13.526;2023-05-10T08:05:23;5.23;;;3.60;;
17363;SDS011;8799;43.594;13.526;2023-05-10T08:07:51;5.60;;;3.00;;
17363;SDS011;8799;43.594;13.526;2023-05-10T08:10:19;7.27;;;3.60;;
17363;SDS011;8799;43.594;13.526;2023-05-10T08:12:47;7.20;;;3.10;;
17363;SDS011;8799;43.594;13.526;2023-05-10T08:15:16;5.43;;;3.50;;
17363;SDS011;8799;43.594;13.526;2023-05-10T08:17:45;6.07;;;3.50;;
17363;SDS011;8799;43.594;13.526;2023-05-10T08:20:13;6.37;;;3.70;;
17363;SDS011;8799;43.594;13.526;2023-05-10T08:22:44;5.77;;;3.63;;
17363;SDS011;8799;43.594;13.526;2023-05-10T08:25:12;5.30;;;3.27;;
17363;SDS011;8799;43.594;13.526;2023-05-10T08:27:40;6.13;;;3.30;;
17363;SDS011;8799;43.594;13.526;2023-05-10T08:30:08;5.87;;;3.03;;
17363;SDS011;8799;43.594;13.526;2023-05-10T08:32:37;6.47;;;3.70;;
17363;SDS011;8799;43.594;13.526;2023-05-10T08:35:07;7.77;;;3.57;;
17363;SDS011;8799;43.594;13.526;2023-05-10T08:37:34;5.20;;;2.97;;
17363;SDS011;8799;43.594;13.526;2023-05-10T08:40:03;6.93;;;3.37;;
17363;SDS011;8799;43.594;13.526;2023-05-10T08:42:33;4.97;;;3.07;;
17363;SDS011;8799;43.594;13.526;2023-05-10T08:45:04;5.03;;;3.40;;
17363;SDS011;8799;43.594;13.526;2023-05-10T08:47:33;5.37;;;3.40;;
17363;SDS011;8799;43.594;13.526;2023-05-10T08:50:03;5.10;;;3.53;;
17363;SDS011;8799;43.594;13.526;2023-05-10T08:52:34;5.80;;;3.40;;
17363;SDS011;8799;43.594;13.526;2023-05-10T08:55:05;5.60;;;3.10;;
17363;SDS011;8799;43.594;13.526;2023-05-10T08:57:35;4.30;;;3.07;;
17363;SDS011;8799;43.594;13.526;2023-05-10T09:00:05;7.83;;;3.17;;
17363;SDS011;8799;43.594;13.526;2023-05-10T09:02:34;8.63;;;3.40;;
17363;SDS011;8799;43.594;13.526;2023-05-10T09:05:03;4.83;;;2.63;;
17363;SDS011;8799;43.594;13.526;2023-05-10T09:07:34;5.20;;;3.23;;
17363;SDS011;8799;43.594;13.526;2023-05-10T09:10:02;4.53;;;2.90;;
17363;SDS011;8799;43.594;13.526;2023-05-10T09:12:31;5.30;;;2.60;;
17363;SDS011;8799;43.594;13.526;2023-05-10T09:14:59;5.27;;;3.10;;
17363;SDS011;8799;43.594;13.526;2023-05-10T09:17:28;4.50;;;3.30;;
17363;SDS011;8799;43.594;13.526;2023-05-10T09:19:58;5.57;;;3.53;;
17363;SDS011;8799;43.594;13.526;2023-05-10T09:22:26;5.00;;;3.60;;
17363;SDS011;8799;43.594;13.526;2023-05-10T09:25:06;5.70;;;3.43;;
17363;SDS011;8799;43.594;13.526;2023-05-10T09:27:36;5.53;;;3.47;;
17363;SDS011;8799;43.594;13.526;2023-05-10T09:30:05;5.20;;;3.30;;
17363;SDS011;8799;43.594;13.526;2023-05-10T09:32:37;4.80;;;3.00;;
17363;SDS011;8799;43.594;13.526;2023-05-10T09:35:09;4.57;;;2.90;;
17363;SDS011;8799;43.594;13.526;2023-05-10T09:37:38;5.27;;;3.23;;
17363;SDS011;8799;43.594;13.526;2023-05-10T09:40:13;6.57;;;3.20;;
17363;SDS011;8799;43.594;13.526;2023-05-10T09:42:50;5.90;;;3.30;;
17363;SDS011;8799;43.594;13.526;2023-05-10T09:45:19;8.03;;;2.83;;
17363;SDS011;8799;43.594;13.526;2023-05-10T09:47:48;5.87;;;3.70;;
17363;SDS011;8799;43.594;13.526;2023-05-10T09:50:16;4.37;;;2.97;;
17363;SDS011;8799;43.594;13.526;2023-05-10T09:52:46;4.17;;;2.93;;
17363;SDS011;8799;43.594;13.526;2023-05-10T09:55:17;4.87;;;3.07;;
17363;SDS011;8799;43.594;13.526;2023-05-10T09:57:47;4.47;;;3.03;;
17363;SDS011;8799;43.594;13.526;2023-05-10T10:00:18;5.63;;;3.00;;
17363;SDS011;8799;43.594;13.526;2023-05-10T10:02:53;4.97;;;3.10;;
17363;SDS011;8799;43.594;13.526;2023-05-10T10:05:27;5.43;;;3.10;;
17363;SDS011;8799;43.594;13.526;2023-05-10T10:07:56;4.70;;;3.17;;
17363;SDS011;8799;43.594;13.526;2023-05-10T10:10:27;4.50;;;3.40;;
17363;SDS011;8799;43.594;13.526;2023-05-10T10:12:55;4.90;;;3.27;;
17363;SDS011;8799;43.594;13.526;2023-05-10T10:15:23;4.90;;;2.77;;
17363;SDS011;8799;43.594;13.526;2023-05-10T10:17:52;5.30;;;3.27;;
17363;SDS011;8799;43.594;13.526;2023-05-10T10:20:21;4.50;;;3.40;;
17363;SDS011;8799;43.594;13.526;2023-05-10T10:22:50;6.33;;;3.77;;
17363;SDS011;8799;43.594;13.526;2023-05-10T10:25:18;4.20;;;2.97;;
17363;SDS011;8799;43.594;13.526;2023-05-10T10:27:57;5.97;;;3.30;;
17363;SDS011;8799;43.594;13.526;2023-05-10T10:30:35;4.60;;;2.83;;
17363;SDS011;8799;43.594;13.526;2023-05-10T10:33:13;4.70;;;3.23;;
17363;SDS011;8799;43.594;13.526;2023-05-10T10:35:58;7.27;;;3.77;;
17363;SDS011;8799;43.594;13.526;2023-05-10T10:38:35;5.17;;;3.17;;
17363;SDS011;8799;43.594;13.526;2023-05-10T10:41:08;6.43;;;3.90;;
17363;SDS011;8799;43.594;13.526;2023-05-10T10:43:39;5.60;;;2.90;;
17363;SDS011;8799;43.594;13.526;2023-05-10T10:46:10;5.33;;;3.20;;
17363;SDS011;8799;43.594;13.526;2023-05-10T10:48:40;5.43;;;3.40;;
17363;SDS011;8799;43.594;13.526;2023-05-10T10:51:14;9.43;;;3.33;;
17363;SDS011;8799;43.594;13.526;2023-05-10T10:53:47;4.53;;;3.03;;
17363;SDS011;8799;43.594;13.526;2023-05-10T10:56:15;5.70;;;3.67;;
17363;SDS011;8799;43.594;13.526;2023-05-10T10:58:51;5.10;;;3.50;;
17363;SDS011;8799;43.594;13.526;2023-05-10T11:01:19;4.60;;;3.20;;
17363;SDS011;8799;43.594;13.526;2023-05-10T11:06:47;6.60;;;3.40;;
17363;SDS011;8799;43.594;13.526;2023-05-10T11:09:15;5.10;;;3.30;;
17363;SDS011;8799;43.594;13.526;2023-05-10T11:11:48;5.60;;;3.37;;
17363;SDS011;8799;43.594;13.526;2023-05-10T11:14:22;5.87;;;3.43;;
17363;SDS011;8799;43.594;13.526;2023-05-10T11:16:50;4.83;;;3.37;;
17363;SDS011;8799;43.594;13.526;2023-05-10T11:19:18;8.30;;;3.50;;
17363;SDS011;8799;43.594;13.526;2023-05-10T11:21:48;5.73;;;3.43;;
17363;SDS011;8799;43.594;13.526;2023-05-10T11:24:18;7.03;;;3.63;;
17363;SDS011;8799;43.594;13.526;2023-05-10T11:26:48;6.33;;;3.60;;
17363;SDS011;8799;43.594;13.526;2023-05-10T11:29:18;6.43;;;3.40;;
17363;SDS011;8799;43.594;13.526;2023-05-10T11:31:48;5.87;;;4.10;;
17363;SDS011;8799;43.594;13.526;2023-05-10T11:34:26;6.23;;;3.87;;
17363;SDS011;8799;43.594;13.526;2023-05-10T11:36:56;6.90;;;3.93;;
17363;SDS011;8799;43.594;13.526;2023-05-10T11:39:25;5.83;;;3.50;;
17363;SDS011;8799;43.594;13.526;2023-05-10T11:41:54;6.63;;;3.77;;
17363;SDS011;8799;43.594;13.526;2023-05-10T11:44:22;6.70;;;4.00;;
17363;SDS011;8799;43.594;13.526;2023-05-10T11:46:52;8.43;;;5.40;;
17363;SDS011;8799;43.594;13.526;2023-05-10T11:49:20;7.90;;;5.30;;
17363;SDS011;8799;43.594;13.526;2023-05-10T11:51:50;7.47;;;5.13;;
17363;SDS011;8799;43.594;13.526;2023-05-10T11:54:18;8.63;;;5.53;;
17363;SDS011;8799;43.594;13.526;2023-05-10T11:56:45;11.07;;;5.63;;
17363;SDS011;8799;43.594;13.526;2023-05-10T11:59:13;10.07;;;5.60;;
17363;SDS011;8799;43.594;13.526;2023-05-10T12:01:41;8.77;;;5.70;;
17363;SDS011;8799;43.594;13.526;2023-05-10T12:04:11;9.70;;;5.47;;
17363;SDS011;8799;43.594;13.526;2023-05-10T12:06:40;9.83;;;5.63;;
17363;SDS011;8799;43.594;13.526;2023-05-10T12:09:08;8.33;;;5.63;;
17363;SDS011;8799;43.594;13.526;2023-05-10T12:11:37;9.47;;;6.13;;
17363;SDS011;8799;43.594;13.526;2023-05-10T12:14:07;9.73;;;5.17;;
17363;SDS011;8799;43.594;13.526;2023-05-10T12:16:35;8.27;;;4.93;;
17363;SDS011;8799;43.594;13.526;2023-05-10T12:19:03;7.57;;;5.17;;
17363;SDS011;8799;43.594;13.526;2023-05-10T12:21:33;7.47;;;5.10;;
17363;SDS011;8799;43.594;13.526;2023-05-10T12:24:02;9.10;;;5.17;;
17363;SDS011;8799;43.594;13.526;2023-05-10T12:26:31;8.70;;;4.47;;
17363;SDS011;8799;43.594;13.526;2023-05-10T12:29:12;8.13;;;5.00;;
17363;SDS011;8799;43.594;13.526;2023-05-10T12:31:50;8.33;;;4.50;;
17363;SDS011;8799;43.594;13.526;2023-05-10T12:34:30;9.03;;;5.37;;
17363;SDS011;8799;43.594;13.526;2023-05-10T12:37:06;7.00;;;4.60;;
17363;SDS011;8799;43.594;13.526;2023-05-10T12:39:38;7.37;;;4.63;;
17363;SDS011;8799;43.594;13.526;2023-05-10T12:42:09;7.33;;;4.40;;
17363;SDS011;8799;43.594;13.526;2023-05-10T12:44:38;6.30;;;4.30;;
17363;SDS011;8799;43.594;13.526;2023-05-10T12:47:06;8.33;;;4.30;;
17363;SDS011;8799;43.594;13.526;2023-05-10T12:49:34;7.77;;;4.37;;
17363;SDS011;8799;43.594;13.526;2023-05-10T12:52:01;8.90;;;4.63;;
17363;SDS011;8799;43.594;13.526;2023-05-10T12:54:31;10.10;;;4.23;;
17363;SDS011;8799;43.594;13.526;2023-05-10T12:57:01;7.50;;;4.20;;
17363;SDS011;8799;43.594;13.526;2023-05-10T12:59:30;7.50;;;4.30;;
17363;SDS011;8799;43.594;13.526;2023-05-10T13:02:01;8.13;;;4.17;;
17363;SDS011;8799;43.594;13.526;2023-05-10T13:04:30;12.00;;;4.80;;
17363;SDS011;8799;43.594;13.526;2023-05-10T13:06:58;6.93;;;4.10;;
17363;SDS011;8799;43.594;13.526;2023-05-10T13:09:26;7.47;;;4.53;;
17363;SDS011;8799;43.594;13.526;2023-05-10T13:11:56;5.23;;;4.10;;
17363;SDS011;8799;43.594;13.526;2023-05-10T13:14:24;6.30;;;4.20;;
17363;SDS011;8799;43.594;13.526;2023-05-10T13:16:53;7.83;;;4.30;;
17363;SDS011;8799;43.594;13.526;2023-05-10T13:19:21;7.63;;;4.77;;
17363;SDS011;8799;43.594;13.526;2023-05-10T13:21:49;8.73;;;4.47;;
17363;SDS011;8799;43.594;13.526;2023-05-10T13:24:17;5.50;;;3.57;;
17363;SDS011;8799;43.594;13.526;2023-05-10T13:26:45;8.10;;;4.37;;
17363;SDS011;8799;43.594;13.526;2023-05-10T13:29:15;6.80;;;4.03;;
17363;SDS011;8799;43.594;13.526;2023-05-10T13:31:44;6.50;;;3.83;;
17363;SDS011;8799;43.594;13.526;2023-05-10T13:34:12;6.20;;;3.43;;
17363;SDS011;8799;43.594;13.526;2023-05-10T13:36:40;9.33;;;3.90;;
17363;SDS011;8799;43.594;13.526;2023-05-10T13:39:08;8.53;;;3.87;;
17363;SDS011;8799;43.594;13.526;2023-05-10T13:41:36;5.60;;;3.87;;
17363;SDS011;8799;43.594;13.526;2023-05-10T13:44:04;5.70;;;3.73;;
17363;SDS011;8799;43.594;13.526;2023-05-10T13:46:34;6.97;;;4.23;;
17363;SDS011;8799;43.594;13.526;2023-05-10T13:49:02;6.60;;;3.83;;
17363;SDS011;8799;43.594;13.526;2023-05-10T13:51:30;6.57;;;3.67;;
17363;SDS011;8799;43.594;13.526;2023-05-10T13:53:58;5.87;;;3.80;;
17363;SDS011;8799;43.594;13.526;2023-05-10T13:56:26;7.90;;;3.97;;
17363;SDS011;8799;43.594;13.526;2023-05-10T13:58:55;7.80;;;4.13;;
17363;SDS011;8799;43.594;13.526;2023-05-10T14:01:24;7.27;;;4.00;;
17363;SDS011;8799;43.594;13.526;2023-05-10T14:03:53;6.03;;;3.53;;
17363;SDS011;8799;43.594;13.526;2023-05-10T14:06:20;7.57;;;3.80;;
17363;SDS011;8799;43.594;13.526;2023-05-10T14:08:48;5.37;;;3.47;;
17363;SDS011;8799;43.594;13.526;2023-05-10T14:11:17;4.80;;;3.27;;
17363;SDS011;8799;43.594;13.526;2023-05-10T14:13:45;5.37;;;3.27;;
17363;SDS011;8799;43.594;13.526;2023-05-10T14:16:14;6.07;;;3.60;;
17363;SDS011;8799;43.594;13.526;2023-05-10T14:18:42;7.50;;;3.70;;
17363;SDS011;8799;43.594;13.526;2023-05-10T14:21:12;5.50;;;3.60;;
17363;SDS011;8799;43.594;13.526;2023-05-10T14:23:40;5.77;;;3.60;;
17363;SDS011;8799;43.594;13.526;2023-05-10T14:26:07;5.47;;;3.33;;
17363;SDS011;8799;43.594;13.526;2023-05-10T14:28:35;5.67;;;3.87;;
17363;SDS011;8799;43.594;13.526;2023-05-10T14:31:03;4.43;;;3.07;;
17363;SDS011;8799;43.594;13.526;2023-05-10T14:33:31;5.40;;;3.60;;
17363;SDS011;8799;43.594;13.526;2023-05-10T14:35:59;4.50;;;3.20;;
17363;SDS011;8799;43.594;13.526;2023-05-10T14:38:30;6.60;;;3.43;;
17363;SDS011;8799;43.594;13.526;2023-05-10T14:40:58;4.90;;;3.30;;
17363;SDS011;8799;43.594;13.526;2023-05-10T14:43:26;5.03;;;3.20;;
17363;SDS011;8799;43.594;13.526;2023-05-10T14:45:54;6.27;;;3.17;;
17363;SDS011;8799;43.594;13.526;2023-05-10T14:48:22;5.00;;;3.17;;
17363;SDS011;8799;43.594;13.526;2023-05-10T14:50:50;6.13;;;3.33;;
17363;SDS011;8799;43.594;13.526;2023-05-10T14:53:17;5.00;;;3.20;;
17363;SDS011;8799;43.594;13.526;2023-05-10T14:55:46;4.80;;;3.20;;
17363;SDS011;8799;43.594;13.526;2023-05-10T14:58:15;5.17;;;3.27;;
17363;SDS011;8799;43.594;13.526;2023-05-10T15:00:43;5.20;;;3.60;;
17363;SDS011;8799;43.594;13.526;2023-05-10T15:03:11;5.27;;;3.23;;
17363;SDS011;8799;43.594;13.526;2023-05-10T15:05:40;6.17;;;3.80;;